Time;durP1;ratioP1;P1;durP2;ratioP2;P2;SDS_P1;SDS_P2;PMS_P1;PMS_P2;Temp;Humidity;BMP_temperature;BMP_pressure;BME280_temperature;BME280_humidity;BME280_pressure;Samples;Min_cycle;Max_cycle;Signal;HPM_P1;HPM_P2
2023/06/24 00:00:11;;;;;;;9.33;8.13;;;;;;;;;;6281509;28;20198;-64
2023/06/24 00:03:16;;;;;;;8.57;7.77;;;;;;;;;;6270573;28;20193;-64
2023/06/24 00:06:18;;;;;;;9.10;8.13;;;;;;;;;;6290168;28;20220;-63
2023/06/24 00:09:19;;;;;;;10.17;7.60;;;;;;;;;;6279600;28;20189;-64
2023/06/24 00:12:20;;;;;;;8.00;7.20;;;;;;;;;;6279902;28;20220;-63
2023/06/24 00:15:21;;;;;;;8.20;7.00;;;;;;;;;;6305509;28;20345;-64
2023/06/24 00:18:24;;;;;;;11.40;7.67;;;;;;;;;;6278259;28;20350;-64
2023/06/24 00:21:29;;;;;;;7.63;6.77;;;;;;;;;;6290375;28;20200;-64
2023/06/24 00:24:30;;;;;;;8.53;6.93;;;;;;;;;;6299676;28;20200;-64
2023/06/24 00:27:31;;;;;;;8.83;7.30;;;;;;;;;;6289784;28;20197;-64
2023/06/24 00:30:32;;;;;;;8.53;7.70;;;;;;;;;;6263365;28;20243;-64
2023/06/24 00:33:33;;;;;;;7.97;7.17;;;;;;;;;;6284850;28;20189;-64
2023/06/24 00:36:35;;;;;;;11.97;7.40;;;;;;;;;;6290659;28;20188;-64
2023/06/24 00:39:36;;;;;;;10.00;6.80;;;;;;;;;;6273873;28;20230;-64
2023/06/24 00:42:37;;;;;;;8.40;7.27;;;;;;;;;;6290206;28;20212;-63
2023/06/24 00:45:39;;;;;;;7.90;7.10;;;;;;;;;;6283480;28;20244;-63
2023/06/24 00:48:40;;;;;;;10.07;6.53;;;;;;;;;;6293526;28;20185;-63
2023/06/24 00:51:50;;;;;;;20.97;7.67;;;;;;;;;;6280644;28;20242;-64
2023/06/24 00:54:52;;;;;;;6.83;6.13;;;;;;;;;;6281516;28;20190;-64
2023/06/24 00:57:53;;;;;;;8.93;5.57;;;;;;;;;;6288328;28;20186;-63
2023/06/24 01:00:57;;;;;;;7.30;6.17;;;;;;;;;;6293999;28;20247;-63
2023/06/24 01:03:58;;;;;;;8.47;5.70;;;;;;;;;;6273978;28;20248;-63
2023/06/24 01:07:00;;;;;;;6.00;5.40;;;;;;;;;;6291508;28;20213;-63
2023/06/24 01:10:01;;;;;;;5.80;5.20;;;;;;;;;;6260306;28;20234;-64
2023/06/24 01:13:02;;;;;;;7.67;4.93;;;;;;;;;;6262469;28;20204;-63
2023/06/24 01:16:07;;;;;;;7.00;4.97;;;;;;;;;;6292704;28;20185;-64
2023/06/24 01:19:27;;;;;;;5.10;4.60;;;;;;;;;;6291448;28;20285;-64
2023/06/24 01:22:47;;;;;;;5.67;4.77;;;;;;;;;;6307993;28;20195;-64
2023/06/24 01:25:51;;;;;;;5.13;3.70;;;;;;;;;;6290967;28;20309;-64
2023/06/24 01:28:56;;;;;;;4.67;4.27;;;;;;;;;;6303154;28;20189;-63
2023/06/24 01:31:57;;;;;;;9.03;4.40;;;;;;;;;;6295400;28;20201;-63
2023/06/24 01:35:00;;;;;;;4.40;4.00;;;;;;;;;;6296761;28;20193;-64
2023/06/24 01:38:04;;;;;;;4.77;3.80;;;;;;;;;;6291046;28;20302;-64
2023/06/24 01:41:06;;;;;;;7.47;3.97;;;;;;;;;;6301370;28;20190;-64
2023/06/24 01:44:10;;;;;;;5.67;4.20;;;;;;;;;;6294049;28;20213;-64
2023/06/24 01:47:15;;;;;;;4.40;4.00;;;;;;;;;;6297318;28;20327;-64
2023/06/24 01:50:20;;;;;;;6.53;3.77;;;;;;;;;;6275527;28;20187;-64
2023/06/24 01:53:21;;;;;;;3.83;3.50;;;;;;;;;;6276461;28;20269;-64
2023/06/24 01:56:24;;;;;;;6.20;4.10;;;;;;;;;;6293577;28;20193;-64
2023/06/24 01:59:28;;;;;;;9.00;4.33;;;;;;;;;;6282100;28;20197;-64
2023/06/24 02:02:30;;;;;;;4.20;3.33;;;;;;;;;;6296079;28;20190;-63
2023/06/24 02:05:32;;;;;;;4.40;3.57;;;;;;;;;;6280126;28;20216;-63
2023/06/24 02:08:34;;;;;;;3.90;3.50;;;;;;;;;;6282789;28;20193;-63
2023/06/24 02:11:36;;;;;;;4.30;3.70;;;;;;;;;;6295728;28;20181;-63
2023/06/24 02:14:38;;;;;;;3.30;3.00;;;;;;;;;;6294476;28;20182;-63
2023/06/24 02:17:39;;;;;;;6.40;3.80;;;;;;;;;;6295177;28;20193;-63
2023/06/24 02:20:41;;;;;;;4.67;3.53;;;;;;;;;;6290835;28;20190;-64
2023/06/24 02:23:42;;;;;;;4.37;3.53;;;;;;;;;;6293774;28;20193;-63
2023/06/24 02:26:44;;;;;;;9.80;4.07;;;;;;;;;;6288930;28;20210;-64
2023/06/24 02:29:46;;;;;;;11.43;4.00;;;;;;;;;;6296014;28;20182;-63
2023/06/24 02:32:47;;;;;;;4.93;3.07;;;;;;;;;;6296351;28;20236;-63
2023/06/24 02:35:48;;;;;;;6.77;3.17;;;;;;;;;;6275108;28;20248;-64
2023/06/24 02:38:49;;;;;;;6.80;3.80;;;;;;;;;;6289325;28;20225;-64
2023/06/24 02:41:50;;;;;;;3.53;3.20;;;;;;;;;;6282474;28;20207;-64
2023/06/24 02:44:52;;;;;;;9.00;3.80;;;;;;;;;;6278814;28;20215;-64
2023/06/24 02:47:53;;;;;;;5.40;3.40;;;;;;;;;;6275087;28;20235;-64
2023/06/24 02:50:54;;;;;;;5.87;3.30;;;;;;;;;;6283356;28;20186;-64
2023/06/24 02:53:57;;;;;;;8.73;4.13;;;;;;;;;;6292899;28;20284;-63
2023/06/24 02:56:59;;;;;;;7.40;3.27;;;;;;;;;;6287329;28;20194;-63
2023/06/24 03:00:07;;;;;;;5.90;3.80;;;;;;;;;;6296765;28;20197;-63
2023/06/24 03:03:09;;;;;;;4.07;3.30;;;;;;;;;;6294129;28;20217;-63
2023/06/24 03:06:12;;;;;;;5.93;3.50;;;;;;;;;;6285507;28;20220;-63
2023/06/24 03:09:15;;;;;;;8.73;4.20;;;;;;;;;;6279999;28;20280;-63
2023/06/24 03:12:16;;;;;;;4.67;4.13;;;;;;;;;;6291200;28;20189;-62
2023/06/24 03:15:17;;;;;;;5.40;3.63;;;;;;;;;;6274674;28;20279;-64
2023/06/24 03:18:18;;;;;;;3.57;3.27;;;;;;;;;;6281149;28;20225;-65
2023/06/24 03:21:19;;;;;;;4.93;4.47;;;;;;;;;;6274769;28;20284;-65
2023/06/24 03:24:20;;;;;;;5.43;4.27;;;;;;;;;;6268301;28;20275;-64
2023/06/24 03:27:21;;;;;;;6.20;4.00;;;;;;;;;;6286538;28;20217;-64
2023/06/24 03:30:22;;;;;;;5.93;3.87;;;;;;;;;;6278469;28;20217;-64
2023/06/24 03:33:24;;;;;;;7.70;4.13;;;;;;;;;;6272859;28;20188;-64
2023/06/24 03:36:25;;;;;;;5.60;3.97;;;;;;;;;;6274193;28;20199;-65
2023/06/24 03:39:26;;;;;;;6.97;4.50;;;;;;;;;;6285050;28;20221;-64
2023/06/24 03:42:29;;;;;;;5.23;3.57;;;;;;;;;;6289094;28;20268;-64
2023/06/24 03:45:30;;;;;;;7.87;4.43;;;;;;;;;;6278318;28;20250;-64
2023/06/24 03:48:31;;;;;;;5.43;4.27;;;;;;;;;;6273601;28;20197;-64
2023/06/24 03:51:32;;;;;;;7.20;4.40;;;;;;;;;;6301234;28;20186;-64
2023/06/24 03:54:33;;;;;;;6.57;4.23;;;;;;;;;;6295053;28;20192;-64
2023/06/24 03:57:34;;;;;;;5.13;4.07;;;;;;;;;;6276361;28;20185;-64
2023/06/24 04:00:40;;;;;;;7.50;4.50;;;;;;;;;;6267162;28;20231;-64
2023/06/24 04:03:41;;;;;;;5.63;4.20;;;;;;;;;;6271304;28;20186;-64
2023/06/24 04:06:42;;;;;;;7.23;4.80;;;;;;;;;;6275090;28;20229;-64
2023/06/24 04:09:43;;;;;;;7.60;4.50;;;;;;;;;;6262169;28;20238;-64
2023/06/24 04:12:44;;;;;;;6.10;4.60;;;;;;;;;;6276794;28;20217;-64
2023/06/24 04:15:45;;;;;;;5.77;5.10;;;;;;;;;;6280367;28;20203;-64
2023/06/24 04:18:46;;;;;;;7.87;5.93;;;;;;;;;;6276569;28;20334;-64
2023/06/24 04:21:48;;;;;;;8.20;5.30;;;;;;;;;;6277760;28;20193;-64
2023/06/24 04:24:48;;;;;;;6.03;5.43;;;;;;;;;;6284885;28;20200;-64
2023/06/24 04:27:50;;;;;;;8.77;5.47;;;;;;;;;;6280250;28;20280;-65
2023/06/24 04:30:51;;;;;;;7.80;5.80;;;;;;;;;;6268156;28;20193;-63
2023/06/24 04:33:52;;;;;;;6.23;5.10;;;;;;;;;;6274579;28;20189;-65
2023/06/24 04:36:53;;;;;;;6.77;5.53;;;;;;;;;;6266270;28;20208;-64
2023/06/24 04:39:54;;;;;;;9.23;5.60;;;;;;;;;;6278832;28;20201;-65
2023/06/24 04:42:55;;;;;;;5.63;5.13;;;;;;;;;;6282421;28;20189;-64
2023/06/24 04:45:56;;;;;;;6.70;6.00;;;;;;;;;;6277417;28;20238;-66
2023/06/24 04:48:57;;;;;;;8.17;5.60;;;;;;;;;;6285137;28;20190;-64
2023/06/24 04:52:02;;;;;;;8.13;5.47;;;;;;;;;;6283586;28;20236;-64
2023/06/24 04:55:03;;;;;;;7.13;5.33;;;;;;;;;;6303336;28;20194;-64
2023/06/24 04:58:04;;;;;;;6.83;5.17;;;;;;;;;;6290553;28;20198;-64
2023/06/24 05:01:05;;;;;;;5.33;4.83;;;;;;;;;;6273822;28;20193;-64
2023/06/24 05:04:06;;;;;;;6.33;5.07;;;;;;;;;;6277758;28;20252;-64
2023/06/24 05:07:07;;;;;;;5.63;5.13;;;;;;;;;;6276180;28;20220;-65
2023/06/24 05:10:08;;;;;;;7.60;5.50;;;;;;;;;;6290583;28;20208;-63
2023/06/24 05:13:09;;;;;;;6.63;5.47;;;;;;;;;;6276893;28;20213;-63
2023/06/24 05:16:11;;;;;;;6.87;5.70;;;;;;;;;;6281741;28;20284;-63
2023/06/24 05:19:12;;;;;;;5.60;5.10;;;;;;;;;;6272893;28;20194;-63
2023/06/24 05:22:13;;;;;;;6.73;6.03;;;;;;;;;;6283079;28;20200;-63
2023/06/24 05:25:14;;;;;;;8.50;5.57;;;;;;;;;;6283877;28;20232;-64
2023/06/24 05:28:15;;;;;;;8.87;5.83;;;;;;;;;;6289038;28;20189;-64
2023/06/24 05:31:16;;;;;;;8.60;5.47;;;;;;;;;;6284234;28;20205;-64
2023/06/24 05:34:17;;;;;;;7.37;5.40;;;;;;;;;;6285708;28;20215;-63
2023/06/24 05:37:18;;;;;;;6.30;5.40;;;;;;;;;;6276817;28;20248;-65
2023/06/24 05:40:19;;;;;;;5.20;4.17;;;;;;;;;;6274744;28;20205;-64
2023/06/24 05:43:20;;;;;;;4.80;4.10;;;;;;;;;;6292592;28;20235;-63
2023/06/24 05:46:21;;;;;;;5.70;4.50;;;;;;;;;;6276922;28;20252;-64
2023/06/24 05:49:22;;;;;;;4.07;3.73;;;;;;;;;;6288878;28;20280;-65
2023/06/24 05:52:23;;;;;;;6.13;4.50;;;;;;;;;;6280768;28;20252;-65
2023/06/24 05:55:24;;;;;;;5.73;5.23;;;;;;;;;;6284021;28;20194;-63
2023/06/24 05:58:25;;;;;;;7.47;5.97;;;;;;;;;;6276963;28;20208;-63
2023/06/24 06:01:26;;;;;;;8.37;5.23;;;;;;;;;;6276171;28;20196;-62
2023/06/24 06:04:28;;;;;;;6.67;5.83;;;;;;;;;;6269873;28;20273;-62
2023/06/24 06:07:29;;;;;;;8.30;6.00;;;;;;;;;;6279780;28;20213;-62
2023/06/24 06:10:30;;;;;;;7.97;7.17;;;;;;;;;;6279353;28;20192;-63
2023/06/24 06:13:31;;;;;;;6.53;5.80;;;;;;;;;;6279224;28;20253;-63
2023/06/24 06:16:32;;;;;;;8.67;7.17;;;;;;;;;;6276900;28;20198;-63
2023/06/24 06:19:33;;;;;;;8.10;6.53;;;;;;;;;;6280910;28;20204;-63
2023/06/24 06:22:37;;;;;;;7.67;6.47;;;;;;;;;;6278487;28;20246;-63
2023/06/24 06:25:38;;;;;;;7.20;6.17;;;;;;;;;;6272804;28;20217;-63
2023/06/24 06:28:40;;;;;;;7.40;6.40;;;;;;;;;;6282785;28;20192;-63
2023/06/24 06:31:41;;;;;;;7.37;6.27;;;;;;;;;;6279204;28;20192;-63
2023/06/24 06:34:42;;;;;;;7.23;6.50;;;;;;;;;;6274281;28;20215;-63
2023/06/24 06:37:44;;;;;;;8.83;6.70;;;;;;;;;;6273934;28;20202;-63
2023/06/24 06:40:45;;;;;;;7.47;5.90;;;;;;;;;;6272145;28;20186;-63
2023/06/24 06:43:46;;;;;;;6.77;5.10;;;;;;;;;;6280448;28;20331;-63
2023/06/24 06:46:49;;;;;;;7.30;5.30;;;;;;;;;;6276818;28;20289;-65
2023/06/24 06:49:50;;;;;;;7.10;5.27;;;;;;;;;;6284756;28;20209;-65
2023/06/24 06:52:51;;;;;;;6.07;4.90;;;;;;;;;;6278311;28;20296;-65
2023/06/24 06:55:52;;;;;;;5.27;4.30;;;;;;;;;;6266947;28;20196;-65
2023/06/24 06:58:53;;;;;;;6.13;4.40;;;;;;;;;;6275523;28;20729;-61
2023/06/24 07:01:54;;;;;;;5.63;3.97;;;;;;;;;;6284824;28;20182;-61
2023/06/24 07:04:55;;;;;;;6.47;3.70;;;;;;;;;;6276992;28;20190;-61
2023/06/24 07:07:56;;;;;;;4.03;3.07;;;;;;;;;;6271772;28;20194;-63
2023/06/24 07:10:57;;;;;;;3.13;2.83;;;;;;;;;;6286908;28;20235;-58
2023/06/24 07:13:59;;;;;;;2.13;2.00;;;;;;;;;;6274927;28;20193;-58
2023/06/24 07:17:00;;;;;;;1.50;1.20;;;;;;;;;;6275054;28;20197;-56
2023/06/24 07:20:01;;;;;;;1.20;1.10;;;;;;;;;;6277696;28;20224;-59
2023/06/24 07:23:02;;;;;;;1.37;1.27;;;;;;;;;;6285121;28;20199;-59
2023/06/24 07:26:03;;;;;;;1.60;1.00;;;;;;;;;;6274724;28;20224;-60
2023/06/24 07:29:07;;;;;;;1.20;1.10;;;;;;;;;;6296592;28;20212;-60
2023/06/24 07:32:08;;;;;;;0.87;0.87;;;;;;;;;;6289415;28;20191;-60
2023/06/24 07:35:10;;;;;;;1.63;0.97;;;;;;;;;;6273726;28;20200;-57
2023/06/24 07:38:12;;;;;;;1.83;0.80;;;;;;;;;;6263672;28;20223;-57
2023/06/24 07:41:13;;;;;;;0.70;0.70;;;;;;;;;;6280434;28;20292;-51
2023/06/24 07:47:52;;;;;;;1.60;0.70;;;;;;;;;;6286274;28;20226;-57
2023/06/24 07:50:53;;;;;;;2.33;0.80;;;;;;;;;;6284379;28;20267;-53
2023/06/24 07:53:54;;;;;;;0.60;0.60;;;;;;;;;;6289942;28;20197;-69
2023/06/24 07:56:56;;;;;;;0.87;0.40;;;;;;;;;;6281012;28;20217;-59
2023/06/24 07:59:57;;;;;;;0.40;0.40;;;;;;;;;;6279721;28;20250;-58
2023/06/24 08:02:58;;;;;;;0.63;0.60;;;;;;;;;;6280190;28;20181;-60
2023/06/24 08:05:59;;;;;;;0.30;0.23;;;;;;;;;;6300996;28;20270;-60
2023/06/24 08:09:00;;;;;;;0.37;0.37;;;;;;;;;;6271755;28;20186;-61
2023/06/24 08:12:01;;;;;;;0.23;0.23;;;;;;;;;;6288410;28;20266;-60
2023/06/24 08:15:03;;;;;;;0.40;0.30;;;;;;;;;;6276049;28;20193;-60
2023/06/24 15:10:47;;;;;;;0.80;0.70;;;;;;;;;;7068306;23;20245;-68
2023/06/24 15:13:48;;;;;;;0.60;0.60;;;;;;;;;;6223135;28;20199;-69
2023/06/24 15:16:50;;;;;;;0.80;0.77;;;;;;;;;;6245709;28;20199;-66
2023/06/24 15:19:51;;;;;;;1.53;0.90;;;;;;;;;;6222490;28;20218;-67
2023/06/24 15:22:52;;;;;;;0.60;0.60;;;;;;;;;;6230848;28;20193;-66
2023/06/24 15:25:54;;;;;;;0.63;0.63;;;;;;;;;;6221694;28;20250;-64
2023/06/24 15:28:55;;;;;;;0.50;0.50;;;;;;;;;;6230757;28;20205;-67
2023/06/24 15:31:56;;;;;;;0.40;0.40;;;;;;;;;;6228717;28;20198;-65
2023/06/24 15:34:57;;;;;;;2.67;0.90;;;;;;;;;;6220343;28;20198;-67
2023/06/24 15:37:58;;;;;;;0.50;0.50;;;;;;;;;;6223005;28;20226;-66
2023/06/24 15:40:59;;;;;;;0.50;0.50;;;;;;;;;;6221973;28;20202;-68
2023/06/24 15:47:10;;;;;;;0.40;0.40;;;;;;;;;;6316493;23;20228;-64
2023/06/24 15:50:11;;;;;;;0.37;0.30;;;;;;;;;;6183580;28;20250;-66
2023/06/24 15:53:14;;;;;;;0.23;0.23;;;;;;;;;;6182123;28;20180;-69
2023/06/24 15:56:15;;;;;;;0.47;0.47;;;;;;;;;;6178674;28;20197;-68
2023/06/24 15:59:16;;;;;;;0.33;0.30;;;;;;;;;;6167435;28;20214;-69
2023/06/24 16:02:18;;;;;;;0.50;0.50;;;;;;;;;;6177546;28;20192;-64
2023/06/24 16:05:19;;;;;;;0.50;0.50;;;;;;;;;;6192072;28;20196;-62
2023/06/24 16:08:21;;;;;;;0.90;0.60;;;;;;;;;;6186525;28;20187;-61
2023/06/24 16:11:22;;;;;;;0.93;0.80;;;;;;;;;;6181498;28;20196;-62
2023/06/24 16:14:23;;;;;;;0.60;0.60;;;;;;;;;;6174576;28;20200;-61
2023/06/24 16:17:24;;;;;;;1.70;0.77;;;;;;;;;;6174057;28;20197;-62
2023/06/24 16:20:25;;;;;;;0.57;0.57;;;;;;;;;;6197507;28;20187;-62
2023/06/24 16:23:26;;;;;;;0.60;0.60;;;;;;;;;;6174080;28;20303;-62
2023/06/24 16:26:27;;;;;;;0.70;0.70;;;;;;;;;;6181973;28;20319;-62
2023/06/24 16:29:29;;;;;;;1.37;1.20;;;;;;;;;;6178169;28;20188;-62
2023/06/24 16:32:30;;;;;;;1.10;1.00;;;;;;;;;;6189891;28;20199;-63
2023/06/24 16:35:31;;;;;;;1.53;1.43;;;;;;;;;;6192043;28;20195;-62
2023/06/24 16:38:32;;;;;;;1.70;1.50;;;;;;;;;;6200639;28;20689;-63
2023/06/24 16:41:33;;;;;;;2.93;1.63;;;;;;;;;;6180042;28;20197;-62
2023/06/24 16:44:37;;;;;;;2.10;1.43;;;;;;;;;;6196701;28;20251;-65
2023/06/24 16:47:38;;;;;;;1.60;1.23;;;;;;;;;;6186658;28;20232;-62
2023/06/24 16:50:39;;;;;;;1.50;1.40;;;;;;;;;;6183345;28;20191;-61
2023/06/24 16:53:40;;;;;;;1.40;1.30;;;;;;;;;;6182743;28;20264;-62
2023/06/24 16:56:41;;;;;;;1.13;1.07;;;;;;;;;;6178284;28;20204;-61
2023/06/24 16:59:42;;;;;;;1.37;1.27;;;;;;;;;;6176341;28;20248;-62
2023/06/24 17:02:43;;;;;;;1.80;1.70;;;;;;;;;;6176101;28;20196;-62
2023/06/24 17:05:44;;;;;;;3.23;2.07;;;;;;;;;;6177245;28;20223;-62
2023/06/24 17:08:45;;;;;;;2.60;2.40;;;;;;;;;;6163055;28;20191;-62
2023/06/24 17:11:46;;;;;;;3.20;2.30;;;;;;;;;;6176749;28;20189;-62
2023/06/24 17:14:47;;;;;;;2.30;2.10;;;;;;;;;;6175738;28;20188;-61
2023/06/24 17:17:48;;;;;;;2.30;2.03;;;;;;;;;;6172242;28;20239;-61
2023/06/24 17:20:49;;;;;;;2.53;2.23;;;;;;;;;;6173766;28;20205;-61
2023/06/24 17:23:50;;;;;;;2.17;1.97;;;;;;;;;;6183478;28;20248;-61
2023/06/24 17:26:51;;;;;;;2.60;2.40;;;;;;;;;;6181153;28;20215;-62
2023/06/24 17:29:56;;;;;;;2.30;2.10;;;;;;;;;;6186540;28;20188;-62
2023/06/24 17:32:57;;;;;;;3.53;2.60;;;;;;;;;;6180449;28;20191;-62
2023/06/24 17:35:58;;;;;;;2.97;2.57;;;;;;;;;;6176125;28;20223;-62
2023/06/24 17:38:59;;;;;;;3.70;2.43;;;;;;;;;;6190297;28;20191;-61
2023/06/24 17:42:00;;;;;;;4.47;2.57;;;;;;;;;;6183935;28;20200;-62
2023/06/24 17:45:01;;;;;;;3.77;2.67;;;;;;;;;;6182940;28;20241;-61
2023/06/24 17:48:02;;;;;;;2.83;2.63;;;;;;;;;;6182457;28;20219;-61
2023/06/24 17:51:03;;;;;;;2.60;2.40;;;;;;;;;;6171655;28;20204;-61
2023/06/24 17:54:04;;;;;;;3.03;2.50;;;;;;;;;;6183603;28;20188;-62
2023/06/24 17:57:05;;;;;;;4.13;3.50;;;;;;;;;;6183310;28;20191;-61
2023/06/24 18:00:08;;;;;;;4.50;2.53;;;;;;;;;;6172580;28;20203;-61
2023/06/24 18:03:10;;;;;;;3.40;3.10;;;;;;;;;;6167585;28;20294;-61
2023/06/24 18:06:11;;;;;;;3.53;3.23;;;;;;;;;;6195950;28;20214;-62
2023/06/24 18:09:12;;;;;;;4.13;3.10;;;;;;;;;;6182028;28;20191;-61
2023/06/24 18:12:13;;;;;;;3.50;3.00;;;;;;;;;;6178367;28;20185;-61
2023/06/24 18:15:14;;;;;;;4.53;3.30;;;;;;;;;;6161503;28;20307;-61
2023/06/24 18:18:15;;;;;;;6.47;4.10;;;;;;;;;;6173002;28;20196;-62
2023/06/24 18:21:17;;;;;;;3.90;3.30;;;;;;;;;;6172528;28;20186;-62
2023/06/24 18:24:18;;;;;;;5.03;3.57;;;;;;;;;;6175646;28;20200;-61
2023/06/24 18:27:19;;;;;;;5.10;3.40;;;;;;;;;;6194436;28;20214;-62
2023/06/24 18:30:20;;;;;;;5.90;3.77;;;;;;;;;;6185725;28;20194;-62
2023/06/24 18:33:21;;;;;;;6.23;3.80;;;;;;;;;;6189134;28;20194;-62
2023/06/24 18:36:22;;;;;;;4.63;3.40;;;;;;;;;;6175626;28;20195;-61
2023/06/24 18:39:23;;;;;;;3.93;3.63;;;;;;;;;;6162904;28;20204;-61
2023/06/24 18:42:24;;;;;;;3.83;3.53;;;;;;;;;;6167884;28;20283;-61
2023/06/24 18:45:25;;;;;;;4.73;3.90;;;;;;;;;;6175285;28;20323;-61
2023/06/24 18:48:26;;;;;;;4.37;3.97;;;;;;;;;;6188029;28;20191;-61
2023/06/24 18:51:27;;;;;;;5.47;3.83;;;;;;;;;;6175918;28;20223;-62
2023/06/24 18:54:29;;;;;;;4.70;3.97;;;;;;;;;;6180840;28;20195;-62
2023/06/24 18:57:30;;;;;;;5.87;3.80;;;;;;;;;;6191283;28;20249;-62
2023/06/24 19:00:31;;;;;;;3.93;3.50;;;;;;;;;;6181501;28;20219;-62
2023/06/24 19:03:32;;;;;;;5.30;3.80;;;;;;;;;;6178106;28;20198;-61
2023/06/24 19:06:33;;;;;;;4.17;3.77;;;;;;;;;;6175881;28;20211;-61
2023/06/24 19:09:34;;;;;;;6.00;4.00;;;;;;;;;;6161313;28;20182;-62
2023/06/24 19:12:35;;;;;;;4.30;3.70;;;;;;;;;;6196883;28;20181;-61
2023/06/24 19:15:36;;;;;;;5.70;3.93;;;;;;;;;;6181772;28;20206;-61
2023/06/24 19:18:37;;;;;;;5.63;3.63;;;;;;;;;;6181152;28;20191;-62
2023/06/24 19:21:39;;;;;;;5.47;4.00;;;;;;;;;;6189806;28;20192;-61
2023/06/24 19:24:40;;;;;;;5.23;4.33;;;;;;;;;;6181613;28;20200;-61
2023/06/24 19:27:41;;;;;;;4.13;3.80;;;;;;;;;;6167996;28;20670;-61
2023/06/24 19:30:42;;;;;;;4.73;3.90;;;;;;;;;;6168177;28;20238;-61
2023/06/24 19:33:43;;;;;;;6.30;4.27;;;;;;;;;;6178498;28;20187;-61
2023/06/24 19:36:44;;;;;;;4.47;4.07;;;;;;;;;;6178060;28;20294;-61
2023/06/24 19:39:45;;;;;;;4.73;3.63;;;;;;;;;;6167364;28;20191;-61
2023/06/24 19:42:46;;;;;;;7.50;4.20;;;;;;;;;;6182733;28;20194;-61
2023/06/24 19:45:48;;;;;;;6.33;4.57;;;;;;;;;;6167581;28;20246;-62
2023/06/24 19:48:49;;;;;;;6.10;4.43;;;;;;;;;;6168452;28;20197;-62
2023/06/24 19:51:50;;;;;;;4.77;4.37;;;;;;;;;;6180268;28;20180;-62
2023/06/24 19:54:52;;;;;;;5.00;4.50;;;;;;;;;;6173966;28;20200;-62
2023/06/24 19:57:53;;;;;;;6.50;4.47;;;;;;;;;;6186974;28;20183;-61
2023/06/24 20:00:54;;;;;;;5.50;4.10;;;;;;;;;;6172377;28;20197;-61
2023/06/24 20:03:55;;;;;;;6.13;4.40;;;;;;;;;;6168466;28;20206;-63
2023/06/24 20:06:56;;;;;;;4.90;4.27;;;;;;;;;;6184140;28;20227;-62
2023/06/24 20:09:57;;;;;;;4.77;4.30;;;;;;;;;;6172588;28;20183;-62
2023/06/24 20:12:58;;;;;;;6.97;4.77;;;;;;;;;;6179203;28;20203;-62
2023/06/24 20:15:59;;;;;;;5.00;4.50;;;;;;;;;;6171720;28;20271;-61
2023/06/24 20:19:00;;;;;;;6.90;5.17;;;;;;;;;;6172052;28;20283;-62
2023/06/24 20:22:01;;;;;;;4.80;4.30;;;;;;;;;;6170690;28;20206;-62
2023/06/24 20:25:03;;;;;;;6.60;4.73;;;;;;;;;;6184010;28;20195;-62
2023/06/24 20:28:05;;;;;;;6.67;4.57;;;;;;;;;;6168009;28;20208;-62
2023/06/24 20:31:06;;;;;;;9.00;5.20;;;;;;;;;;6183228;28;20195;-62
2023/06/24 20:34:07;;;;;;;5.47;4.73;;;;;;;;;;6172909;28;20199;-62
2023/06/24 20:37:08;;;;;;;5.87;4.90;;;;;;;;;;6176894;28;20204;-62
2023/06/24 20:40:09;;;;;;;6.33;4.67;;;;;;;;;;6172428;28;20208;-63
2023/06/24 20:43:10;;;;;;;5.20;4.67;;;;;;;;;;6176529;28;20188;-62
2023/06/24 20:46:11;;;;;;;5.37;4.93;;;;;;;;;;6178231;28;20270;-63
2023/06/24 20:49:12;;;;;;;6.10;4.90;;;;;;;;;;6181184;28;20195;-63
2023/06/24 20:52:14;;;;;;;5.53;4.93;;;;;;;;;;6179836;28;20281;-63
2023/06/24 20:55:15;;;;;;;9.50;5.47;;;;;;;;;;6196526;28;20195;-62
2023/06/24 20:58:16;;;;;;;6.77;5.23;;;;;;;;;;6180554;28;20180;-63
2023/06/24 21:01:17;;;;;;;11.03;5.63;;;;;;;;;;6175606;28;20196;-63
2023/06/24 21:04:18;;;;;;;5.30;4.80;;;;;;;;;;6173427;28;20196;-63
2023/06/24 21:07:19;;;;;;;5.53;4.93;;;;;;;;;;6176506;28;20281;-61
2023/06/24 21:10:20;;;;;;;8.87;5.30;;;;;;;;;;6174276;28;20187;-61
2023/06/24 21:13:21;;;;;;;6.83;4.93;;;;;;;;;;6175383;28;20194;-62
2023/06/24 21:16:22;;;;;;;6.47;4.97;;;;;;;;;;6165351;28;20188;-62
2023/06/24 21:19:23;;;;;;;6.10;5.20;;;;;;;;;;6182561;28;20187;-62
2023/06/24 21:22:25;;;;;;;6.17;5.03;;;;;;;;;;6181463;28;20203;-62
2023/06/24 21:25:26;;;;;;;7.57;5.47;;;;;;;;;;6188500;28;20201;-62
2023/06/24 21:28:27;;;;;;;6.00;5.40;;;;;;;;;;6165924;28;20185;-62
2023/06/24 21:31:28;;;;;;;5.30;4.90;;;;;;;;;;6176575;28;20262;-61
2023/06/24 21:34:29;;;;;;;8.80;6.40;;;;;;;;;;6167320;28;20193;-62
2023/06/24 21:37:31;;;;;;;7.93;5.50;;;;;;;;;;6166656;28;20689;-61
2023/06/24 21:40:32;;;;;;;6.03;5.50;;;;;;;;;;6168706;28;20195;-62
2023/06/24 21:43:36;;;;;;;7.83;5.90;;;;;;;;;;6183126;28;20195;-63
2023/06/24 21:46:37;;;;;;;12.70;7.37;;;;;;;;;;6183333;28;20280;-62
2023/06/24 21:49:38;;;;;;;6.63;5.93;;;;;;;;;;6173094;28;20283;-61
2023/06/24 21:52:39;;;;;;;7.30;5.30;;;;;;;;;;6186776;28;20191;-61
2023/06/24 21:55:40;;;;;;;9.50;6.27;;;;;;;;;;6180528;28;20202;-61
2023/06/24 21:58:41;;;;;;;6.30;5.70;;;;;;;;;;6173489;28;20215;-62
2023/06/24 22:01:43;;;;;;;6.97;5.87;;;;;;;;;;6170229;28;20263;-61
2023/06/24 22:04:44;;;;;;;6.47;5.87;;;;;;;;;;6175470;28;20200;-61
2023/06/24 22:07:45;;;;;;;6.67;5.97;;;;;;;;;;6180205;28;20262;-61
2023/06/24 22:10:46;;;;;;;6.57;5.60;;;;;;;;;;6165512;28;20195;-61
2023/06/24 22:13:47;;;;;;;8.93;6.77;;;;;;;;;;6169420;28;20244;-62
2023/06/24 22:16:48;;;;;;;9.93;6.77;;;;;;;;;;6188848;28;20199;-62
2023/06/24 22:19:49;;;;;;;7.00;5.80;;;;;;;;;;6185149;28;20205;-62
2023/06/24 22:22:50;;;;;;;6.37;5.77;;;;;;;;;;6184304;28;20197;-62
2023/06/24 22:25:51;;;;;;;6.87;6.27;;;;;;;;;;6168849;28;20215;-62
2023/06/24 22:28:52;;;;;;;6.70;5.93;;;;;;;;;;6170285;28;20199;-62
2023/06/24 22:31:53;;;;;;;8.83;5.87;;;;;;;;;;6177753;28;20184;-62
2023/06/24 22:34:54;;;;;;;7.00;5.93;;;;;;;;;;6175985;28;20199;-61
2023/06/24 22:37:55;;;;;;;6.53;5.93;;;;;;;;;;6183417;28;20200;-61
2023/06/24 22:40:56;;;;;;;7.00;5.80;;;;;;;;;;6170339;28;20278;-62
2023/06/24 22:43:57;;;;;;;7.10;6.40;;;;;;;;;;6180463;28;20200;-62
2023/06/24 22:46:58;;;;;;;7.50;6.10;;;;;;;;;;6162434;28;20239;-62
2023/06/24 22:50:00;;;;;;;9.47;6.47;;;;;;;;;;6165079;28;20196;-62
2023/06/24 22:53:01;;;;;;;6.30;5.70;;;;;;;;;;6180684;28;20199;-61
2023/06/24 22:56:02;;;;;;;6.77;6.00;;;;;;;;;;6182508;28;20200;-62
2023/06/24 22:59:03;;;;;;;7.13;6.27;;;;;;;;;;6183007;28;20268;-61
2023/06/24 23:02:04;;;;;;;7.33;6.27;;;;;;;;;;6166024;28;20304;-62
2023/06/24 23:05:06;;;;;;;9.10;6.20;;;;;;;;;;6167557;28;20225;-62
2023/06/24 23:08:07;;;;;;;6.63;6.03;;;;;;;;;;6179316;28;20255;-61
2023/06/24 23:11:08;;;;;;;6.50;5.90;;;;;;;;;;6160702;28;20200;-62
2023/06/24 23:14:09;;;;;;;6.57;5.87;;;;;;;;;;6168592;28;20209;-62
2023/06/24 23:17:17;;;;;;;7.23;5.90;;;;;;;;;;6174191;28;20200;-62
2023/06/24 23:20:18;;;;;;;7.73;6.30;;;;;;;;;;6181186;28;20200;-61
2023/06/24 23:23:19;;;;;;;8.30;7.00;;;;;;;;;;6181944;28;20290;-62
2023/06/24 23:26:21;;;;;;;8.70;6.23;;;;;;;;;;6183462;28;20299;-61
2023/06/24 23:29:27;;;;;;;9.07;6.43;;;;;;;;;;6177101;28;20216;-61
2023/06/24 23:32:31;;;;;;;8.23;6.10;;;;;;;;;;6175601;28;20182;-61
2023/06/24 23:35:32;;;;;;;10.40;6.47;;;;;;;;;;6194928;28;20212;-61
2023/06/24 23:38:33;;;;;;;6.60;6.00;;;;;;;;;;6187710;28;20192;-61
2023/06/24 23:41:34;;;;;;;7.23;6.27;;;;;;;;;;6188413;28;20271;-61
2023/06/24 23:44:35;;;;;;;7.27;5.87;;;;;;;;;;6174061;28;20184;-62
2023/06/24 23:47:36;;;;;;;8.60;5.83;;;;;;;;;;6191291;28;20227;-62
2023/06/24 23:50:37;;;;;;;8.50;6.67;;;;;;;;;;6178105;28;20203;-62
2023/06/24 23:53:39;;;;;;;8.90;6.40;;;;;;;;;;6171030;28;20188;-62
2023/06/24 23:56:40;;;;;;;7.97;6.30;;;;;;;;;;6177320;28;20188;-62
2023/06/24 23:59:41;;;;;;;12.07;6.97;;;;;;;;;;6185284;28;20198;-62
